Terminal Aerodrome Forecast
Issued by NWS Shreveport, LA

Home | Current Version | Previous Version | Text Only | Print | Product List | Glossary On
Versions: 1 2 3 4 5 6 7 8 9 10 11 12 13 14 15 16 17 18 19 20
000
FTUS44 KSHV 291720
TAFLFK
TAF
KLFK 291720Z 2918/3018 15010KT P6SM BKN025
     FM291900 17013G22KT P6SM BKN035
     FM300000 16011KT P6SM VCTS OVC025CB
     FM301200 16010KT 5SM -TSRA BR OVC011CB=

USA.gov is the U.S. government's official web portal to all federal, state and local government web resources and services.